Terminal Aerodrome Forecast
Issued by NWS

Home | Current Version | Previous Version | Text Only | Print | Product List | Glossary Off
Versions: 1 2 3 4 5 6 7 8 9 10 11 12 13 14 15 16 17 18 19 20 21 22 23 24 25

000
FTUS43 KGRB 271502 AAA
TAFATW
TAF AMD
KATW 271502Z 2715/2812 07006KT 6SM SHRA BR OVC015
      TEMPO 2715/2716 3SM SHRA BKN006
     FM271600 08007KT 6SM SHRA BR OVC015
      TEMPO 2716/2720 3SM -TSRA BKN006CB
     FM272000 01004KT 6SM BR BKN013
     FM280900 26003KT 1 1/2SM BR BKN008=

USA.gov is the U.S. government's official web portal to all federal, state and local government web resources and services.